createdAt,value
2024-01-06T00:00:05.729Z,5.47
2024-01-06T00:02:32.305Z,5.59
2024-01-06T00:04:58.904Z,5.51
2024-01-06T00:07:25.425Z,5.36
2024-01-06T00:09:52.116Z,5.33
2024-01-06T00:12:18.739Z,5.27
2024-01-06T00:14:45.304Z,5.11
2024-01-06T00:17:12.587Z,5.05
2024-01-06T00:19:39.184Z,5.18
2024-01-06T00:22:05.879Z,5.12
2024-01-06T00:24:32.564Z,4.98
2024-01-06T00:26:59.109Z,4.83
2024-01-06T00:29:25.630Z,4.88
2024-01-06T00:31:52.235Z,4.96
2024-01-06T00:34:18.898Z,5.01
2024-01-06T00:36:45.585Z,5.08
2024-01-06T00:39:12.224Z,5.10
2024-01-06T00:41:38.799Z,5.18
2024-01-06T00:44:05.329Z,5.12
2024-01-06T00:46:31.879Z,5.14
2024-01-06T00:48:58.537Z,5.13
2024-01-06T00:51:25.204Z,4.94
2024-01-06T00:53:51.786Z,4.80
2024-01-06T00:56:18.291Z,4.72
2024-01-06T00:58:44.852Z,4.67
2024-01-06T01:01:11.530Z,4.64
2024-01-06T01:03:38.167Z,4.70
2024-01-06T01:06:04.960Z,4.71
2024-01-06T01:08:31.611Z,4.73
2024-01-06T01:10:58.557Z,4.84
2024-01-06T01:13:25.154Z,4.88
2024-01-06T01:15:52.467Z,4.82
2024-01-06T01:18:19.482Z,4.74
2024-01-06T01:20:46.145Z,4.80
2024-01-06T01:23:12.672Z,4.62
2024-01-06T01:25:39.244Z,4.54
2024-01-06T01:28:05.979Z,4.46
2024-01-06T01:30:32.673Z,4.61
2024-01-06T01:32:59.783Z,4.59
2024-01-06T01:35:26.340Z,4.58
2024-01-06T01:37:52.962Z,4.62
2024-01-06T01:40:19.522Z,4.58
2024-01-06T01:42:46.098Z,4.37
2024-01-06T01:45:13.623Z,4.28
2024-01-06T01:47:40.682Z,4.21
2024-01-06T01:50:08.914Z,4.19
2024-01-06T01:52:37.588Z,4.12
2024-01-06T01:55:04.540Z,4.27
2024-01-06T01:57:31.722Z,4.34
2024-01-06T01:59:58.554Z,4.42
2024-01-06T02:02:25.243Z,4.42
2024-01-06T02:04:51.846Z,4.42
2024-01-06T02:07:18.522Z,4.38
2024-01-06T02:09:45.284Z,4.20
2024-01-06T02:12:12.035Z,4.13
2024-01-06T02:14:38.709Z,4.12
2024-01-06T02:17:05.264Z,4.14
2024-01-06T02:19:31.978Z,4.05
2024-01-06T02:21:58.660Z,4.08
2024-01-06T02:24:25.205Z,4.16
2024-01-06T02:26:51.812Z,4.17
2024-01-06T02:29:18.574Z,4.19
2024-01-06T02:31:45.236Z,4.14
2024-01-06T02:34:12.233Z,4.04
2024-01-06T02:36:38.945Z,3.86
2024-01-06T02:39:05.492Z,3.81
2024-01-06T02:41:32.092Z,3.79
2024-01-06T02:43:58.648Z,3.73
2024-01-06T02:46:25.242Z,3.70
2024-01-06T02:48:52.030Z,3.74
2024-01-06T02:51:18.707Z,3.88
2024-01-06T02:53:45.328Z,3.92
2024-01-06T02:56:12.821Z,3.96
2024-01-06T02:58:40.412Z,3.94
2024-01-06T03:01:07.115Z,3.92
2024-01-06T03:03:33.909Z,3.81
2024-01-06T03:06:00.636Z,3.83
2024-01-06T03:08:27.160Z,3.78
2024-01-06T03:10:53.689Z,3.85
2024-01-06T03:13:20.305Z,4.00
2024-01-06T03:15:47.018Z,3.94
2024-01-06T03:18:13.803Z,3.94
2024-01-06T03:20:40.470Z,3.92
2024-01-06T03:23:06.985Z,3.81
2024-01-06T03:25:33.578Z,3.70
2024-01-06T03:28:00.169Z,3.60
2024-01-06T03:30:26.864Z,3.54
2024-01-06T03:32:53.533Z,3.54
2024-01-06T03:35:20.189Z,3.64
2024-01-06T03:37:46.710Z,3.65
2024-01-06T03:40:13.647Z,3.59
2024-01-06T03:42:40.278Z,3.62
2024-01-06T03:45:07.314Z,3.72
2024-01-06T03:47:33.834Z,3.84
2024-01-06T03:50:00.402Z,3.89
2024-01-06T03:52:27.031Z,3.87
2024-01-06T03:54:53.619Z,3.77
2024-01-06T03:57:20.221Z,3.67
2024-01-06T03:59:46.837Z,3.74
2024-01-06T04:02:13.466Z,3.62
2024-01-06T04:04:40.119Z,3.61
2024-01-06T04:07:06.736Z,3.76
2024-01-06T04:09:33.329Z,3.78
2024-01-06T04:11:59.941Z,3.89
2024-01-06T04:14:26.489Z,3.91
2024-01-06T04:16:53.063Z,3.97
2024-01-06T04:19:19.738Z,3.94
2024-01-06T04:21:46.404Z,3.93
2024-01-06T04:24:13.004Z,3.99
2024-01-06T04:26:39.556Z,3.83
2024-01-06T04:29:06.132Z,3.70
2024-01-06T04:31:32.734Z,3.62
2024-01-06T04:33:59.482Z,3.66
2024-01-06T04:36:26.121Z,3.75
2024-01-06T04:38:52.739Z,3.62
2024-01-06T04:41:19.310Z,3.61
2024-01-06T04:43:45.894Z,3.60
2024-01-06T04:46:12.599Z,3.66
2024-01-06T04:48:41.977Z,3.71
2024-01-06T04:51:08.651Z,3.70
2024-01-06T04:53:35.278Z,3.66
2024-01-06T04:56:01.861Z,3.69
2024-01-06T04:58:28.488Z,3.80
2024-01-06T05:00:55.280Z,3.86
2024-01-06T05:03:21.960Z,3.89
2024-01-06T05:05:48.634Z,3.91
2024-01-06T05:08:15.254Z,3.92
2024-01-06T05:10:41.908Z,3.90
2024-01-06T05:13:08.442Z,3.86
2024-01-06T05:15:35.176Z,3.94
2024-01-06T05:18:01.929Z,3.83
2024-01-06T05:20:28.603Z,3.71
2024-01-06T05:22:55.303Z,3.61
2024-01-06T05:25:21.957Z,3.57
2024-01-06T05:27:48.571Z,3.53
2024-01-06T05:30:15.343Z,3.59
2024-01-06T05:32:42.141Z,3.62
2024-01-06T05:35:08.944Z,3.65
2024-01-06T05:37:35.571Z,3.74
2024-01-06T05:40:02.461Z,3.77
2024-01-06T05:42:29.087Z,3.79
2024-01-06T05:44:55.697Z,3.72
2024-01-06T05:47:22.903Z,3.74
2024-01-06T05:49:49.464Z,3.77
2024-01-06T05:52:16.511Z,3.87
2024-01-06T05:54:43.488Z,3.69
2024-01-06T05:57:10.163Z,3.64
2024-01-06T05:59:36.745Z,3.67
2024-01-06T06:02:03.446Z,3.74
2024-01-06T06:04:30.198Z,3.76
2024-01-06T06:06:59.185Z,3.71
2024-01-06T06:09:26.799Z,3.62
2024-01-06T06:11:53.391Z,3.63
2024-01-06T06:14:19.930Z,3.68
2024-01-06T06:16:46.505Z,3.66
2024-01-06T06:19:13.134Z,3.65
2024-01-06T06:21:39.731Z,3.67
2024-01-06T06:24:06.643Z,3.78
2024-01-06T06:26:33.226Z,3.77
2024-01-06T06:28:59.747Z,3.85
2024-01-06T06:31:26.411Z,3.89
2024-01-06T06:33:53.185Z,3.87
2024-01-06T06:36:19.817Z,3.75
2024-01-06T06:38:46.602Z,3.78
2024-01-06T06:41:13.164Z,3.80
2024-01-06T06:43:39.696Z,3.87
2024-01-06T06:46:06.334Z,3.91
2024-01-06T06:48:32.903Z,4.00
2024-01-06T06:50:59.465Z,4.02
2024-01-06T06:53:26.091Z,4.06
2024-01-06T06:55:52.610Z,4.08
2024-01-06T06:58:19.148Z,3.90
2024-01-06T07:00:45.754Z,3.85
2024-01-06T07:03:13.661Z,3.98
2024-01-06T07:05:40.483Z,4.05
2024-01-06T07:08:07.359Z,4.09
2024-01-06T07:10:33.905Z,4.13
2024-01-06T07:13:00.433Z,4.19
2024-01-06T07:15:26.967Z,4.25
2024-01-06T07:17:53.642Z,4.28
2024-01-06T07:20:20.372Z,4.31
2024-01-06T07:22:46.956Z,4.39
2024-01-06T07:25:13.490Z,4.40
2024-01-06T07:27:40.060Z,4.44
2024-01-06T07:30:07.244Z,4.36
2024-01-06T07:32:33.813Z,4.26
2024-01-06T07:35:02.372Z,4.29
2024-01-06T07:37:30.630Z,4.42
2024-01-06T07:39:57.199Z,4.45
2024-01-06T07:42:23.883Z,4.43
2024-01-06T07:44:50.632Z,4.40
2024-01-06T07:47:17.137Z,4.40
2024-01-06T07:49:43.848Z,4.45
2024-01-06T07:52:10.489Z,4.50
2024-01-06T07:54:37.095Z,4.45
2024-01-06T07:57:03.946Z,4.47
2024-01-06T07:59:30.533Z,4.56
2024-01-06T08:01:57.101Z,4.58
2024-01-06T08:04:23.770Z,4.61
2024-01-06T08:06:51.792Z,4.58
2024-01-06T08:09:19.516Z,4.69
2024-01-06T08:11:46.097Z,4.82
2024-01-06T08:14:12.741Z,4.77
2024-01-06T08:16:39.291Z,4.81
2024-01-06T08:19:06.061Z,4.95
2024-01-06T08:21:32.766Z,4.93
2024-01-06T08:23:59.301Z,4.99
2024-01-06T08:26:25.876Z,5.03
2024-01-06T08:28:52.515Z,4.97
2024-01-06T08:31:19.478Z,4.99
2024-01-06T08:33:46.236Z,4.95
2024-01-06T08:36:13.113Z,5.07
2024-01-06T08:38:39.676Z,5.16
2024-01-06T08:41:06.234Z,5.11
2024-01-06T08:43:32.811Z,5.17
2024-01-06T08:45:59.464Z,5.34
2024-01-06T08:48:26.156Z,5.36
2024-01-06T08:50:53.006Z,5.29
2024-01-06T08:53:19.555Z,5.24
2024-01-06T08:55:47.336Z,5.40
2024-01-06T08:58:14.309Z,5.50
2024-01-06T09:00:41.033Z,5.56
2024-01-06T09:03:07.711Z,5.55
2024-01-06T09:05:34.293Z,5.48
2024-01-06T09:08:00.882Z,5.51
2024-01-06T09:10:27.452Z,5.57
2024-01-06T09:12:54.028Z,5.68
2024-01-06T09:15:20.630Z,5.73
2024-01-06T09:17:47.351Z,5.69
2024-01-06T09:20:14.017Z,5.65
2024-01-06T09:22:40.556Z,5.64
2024-01-06T09:25:07.604Z,5.82
2024-01-06T09:27:34.205Z,5.80
2024-01-06T09:30:00.755Z,5.77
2024-01-06T09:32:27.303Z,5.75
2024-01-06T09:34:54.157Z,5.77
2024-01-06T09:37:20.889Z,5.82
2024-01-06T09:39:47.459Z,5.87
2024-01-06T09:42:14.096Z,5.83
2024-01-06T09:44:40.700Z,5.81
2024-01-06T09:47:07.333Z,5.88
2024-01-06T09:49:35.921Z,5.99
2024-01-06T09:52:04.574Z,5.97
2024-01-06T09:54:31.701Z,6.07
2024-01-06T09:56:58.587Z,6.09
2024-01-06T09:59:25.494Z,6.18
2024-01-06T10:01:52.091Z,6.16
2024-01-06T10:04:21.491Z,6.15
2024-01-06T10:06:50.125Z,6.17
2024-01-06T10:09:16.669Z,6.16
2024-01-06T10:11:43.285Z,6.23
2024-01-06T10:14:09.829Z,6.18
2024-01-06T10:16:37.406Z,6.17
2024-01-06T10:19:04.469Z,6.13
2024-01-06T10:21:33.257Z,6.25
2024-01-06T10:24:01.049Z,6.37
2024-01-06T10:26:28.001Z,6.35
2024-01-06T10:28:54.691Z,6.35
2024-01-06T10:31:21.352Z,6.27
2024-01-06T10:33:48.799Z,6.23
2024-01-06T10:36:15.478Z,6.22
2024-01-06T10:38:42.073Z,6.22
2024-01-06T10:41:09.144Z,6.20
2024-01-06T10:43:36.854Z,6.24
2024-01-06T10:46:06.957Z,6.22
2024-01-06T10:48:35.800Z,6.26
2024-01-06T10:51:02.854Z,6.32
2024-01-06T10:53:30.649Z,6.43
2024-01-06T10:55:58.568Z,6.43
2024-01-06T10:58:25.382Z,6.40
2024-01-06T11:00:52.320Z,6.45
2024-01-06T11:03:19.464Z,6.63
2024-01-06T11:05:46.540Z,6.53
2024-01-06T11:08:13.584Z,6.43
2024-01-06T11:10:41.431Z,6.49
2024-01-06T11:13:15.631Z,6.63
2024-01-06T11:15:42.932Z,6.62
2024-01-06T11:18:09.652Z,6.65
2024-01-06T11:20:36.336Z,6.69
2024-01-06T11:23:20.075Z,6.81
2024-01-06T11:25:46.710Z,6.86
2024-01-06T11:28:13.456Z,6.85
2024-01-06T11:30:40.218Z,6.90
2024-01-06T11:33:06.954Z,6.86
2024-01-06T11:35:33.553Z,6.92
2024-01-06T11:38:03.384Z,6.95
2024-01-06T11:40:35.418Z,6.89
2024-01-06T11:43:09.824Z,6.83
2024-01-06T11:45:38.922Z,6.80
2024-01-06T11:48:07.554Z,6.82
2024-01-06T11:50:36.227Z,6.82
2024-01-06T11:53:04.711Z,6.88
2024-01-06T11:55:31.491Z,6.78
2024-01-06T11:57:58.251Z,6.73
2024-01-06T12:00:25.174Z,6.70
2024-01-06T12:02:57.263Z,6.75
2024-01-06T12:05:23.909Z,6.80
2024-01-06T12:08:00.246Z,6.80
2024-01-06T12:10:28.517Z,6.92
2024-01-06T12:13:06.155Z,6.84
2024-01-06T12:15:34.024Z,6.90
2024-01-06T12:18:04.548Z,6.93
2024-01-06T12:20:32.374Z,6.81
2024-01-06T12:22:58.983Z,6.88
2024-01-06T12:25:26.761Z,6.82
2024-01-06T12:27:53.857Z,6.75
2024-01-06T12:30:22.599Z,6.70
2024-01-06T12:32:50.519Z,6.67
2024-01-06T12:35:17.972Z,6.65
2024-01-06T12:37:44.810Z,6.64
2024-01-06T12:40:13.208Z,6.75
2024-01-06T12:42:40.984Z,6.70
2024-01-06T12:45:07.942Z,6.64
2024-01-06T12:47:35.100Z,6.59
2024-01-06T12:50:01.849Z,6.63
2024-01-06T12:52:28.416Z,6.72
2024-01-06T12:54:55.063Z,6.66
2024-01-06T12:57:21.831Z,6.60
2024-01-06T12:59:48.425Z,6.58
2024-01-06T13:02:15.065Z,6.57
2024-01-06T13:04:41.633Z,6.62
2024-01-06T13:07:08.444Z,6.67
2024-01-06T13:09:35.147Z,6.61
2024-01-06T13:12:01.899Z,6.59
2024-01-06T13:14:28.969Z,6.55
2024-01-06T13:16:55.493Z,6.54
2024-01-06T13:19:22.089Z,6.52
2024-01-06T13:21:48.806Z,6.53
2024-01-06T13:24:15.354Z,6.56
2024-01-06T13:26:41.933Z,6.51
2024-01-06T13:29:08.535Z,6.52
2024-01-06T13:31:35.377Z,6.63
2024-01-06T13:34:02.140Z,6.61
2024-01-06T13:36:28.777Z,6.68
2024-01-06T13:38:55.330Z,6.67
2024-01-06T13:41:22.521Z,6.67
2024-01-06T13:43:49.162Z,6.79
2024-01-06T13:46:15.695Z,6.72
2024-01-06T13:48:42.390Z,6.73
2024-01-06T13:51:09.844Z,6.64
2024-01-06T13:53:36.483Z,6.70
2024-01-06T13:56:03.245Z,6.68
2024-01-06T13:58:29.837Z,6.60
2024-01-06T14:00:56.515Z,6.56
2024-01-06T14:03:23.206Z,6.56
2024-01-06T14:05:50.097Z,6.49
2024-01-06T14:08:16.627Z,6.55
2024-01-06T14:10:43.242Z,6.36
2024-01-06T14:13:09.955Z,6.29
2024-01-06T14:15:36.539Z,6.26
2024-01-06T14:18:04.993Z,6.31
2024-01-06T14:20:31.750Z,6.33
2024-01-06T14:22:58.276Z,6.38
2024-01-06T14:25:25.445Z,6.30
2024-01-06T14:27:52.104Z,6.18
2024-01-06T14:30:18.853Z,6.07
2024-01-06T14:32:45.656Z,6.09
2024-01-06T14:35:12.458Z,6.20
2024-01-06T14:37:39.703Z,6.15
2024-01-06T14:40:08.369Z,6.21
2024-01-06T14:42:35.097Z,6.08
2024-01-06T14:45:01.620Z,6.02
2024-01-06T14:47:28.139Z,5.94
2024-01-06T14:49:54.916Z,5.90
2024-01-06T14:52:21.588Z,6.09
2024-01-06T14:54:48.188Z,6.09
2024-01-06T14:57:14.806Z,6.02
2024-01-06T14:59:41.303Z,5.96
2024-01-06T15:02:07.872Z,6.02
2024-01-06T15:04:34.541Z,6.02
2024-01-06T15:07:01.188Z,6.08
2024-01-06T15:09:27.738Z,6.08
2024-01-06T15:11:54.322Z,6.13
2024-01-06T15:14:20.897Z,6.19
2024-01-06T15:16:47.421Z,6.11
2024-01-06T15:19:14.100Z,5.98
2024-01-06T15:21:40.750Z,5.94
2024-01-06T15:24:08.297Z,6.05
2024-01-06T15:26:34.898Z,5.92
2024-01-06T15:29:01.421Z,5.99
2024-01-06T15:31:30.929Z,6.02
2024-01-06T15:33:57.822Z,5.90
2024-01-06T15:36:24.575Z,5.89
2024-01-06T15:38:51.287Z,5.84
2024-01-06T15:41:19.343Z,5.83
2024-01-06T15:43:46.333Z,5.80
2024-01-06T15:46:12.932Z,5.64
2024-01-06T15:48:39.714Z,5.46
2024-01-06T15:51:06.410Z,5.41
2024-01-06T15:53:33.011Z,5.49
2024-01-06T15:55:59.537Z,5.45
2024-01-06T15:58:26.127Z,5.42
2024-01-06T16:00:52.792Z,5.41
2024-01-06T16:03:19.460Z,5.45
2024-01-06T16:05:46.533Z,5.53
2024-01-06T16:08:13.349Z,5.50
2024-01-06T16:10:40.214Z,5.55
2024-01-06T16:13:06.851Z,5.54
2024-01-06T16:15:33.521Z,5.56
2024-01-06T16:18:00.237Z,5.52
2024-01-06T16:20:26.868Z,5.44
2024-01-06T16:22:53.430Z,5.28
2024-01-06T16:25:19.976Z,5.25
2024-01-06T16:27:46.617Z,5.17
2024-01-06T16:30:13.860Z,5.27
2024-01-06T16:32:40.537Z,5.32
2024-01-06T16:35:07.472Z,5.40
2024-01-06T16:37:34.140Z,5.22
2024-01-06T16:40:00.905Z,5.03
2024-01-06T16:42:27.662Z,5.00
2024-01-06T16:44:54.217Z,4.97
2024-01-06T16:47:20.849Z,4.98
2024-01-06T16:49:47.488Z,4.87
2024-01-06T16:52:14.043Z,4.74
2024-01-06T16:54:40.648Z,4.68
2024-01-06T16:57:07.227Z,4.70
2024-01-06T16:59:33.768Z,4.71
2024-01-06T17:02:00.523Z,4.69
2024-01-06T17:04:27.790Z,4.55
2024-01-06T17:06:56.495Z,4.38
2024-01-06T17:09:24.489Z,4.24
2024-01-06T17:11:51.007Z,4.09
2024-01-06T17:14:17.512Z,4.12
2024-01-06T17:16:44.103Z,4.08
2024-01-06T17:19:10.877Z,3.99
2024-01-06T17:21:37.472Z,3.99
2024-01-06T17:24:04.740Z,4.00
2024-01-06T17:26:31.319Z,3.93
2024-01-06T17:28:57.874Z,3.82
2024-01-06T17:31:24.483Z,3.66
2024-01-06T17:33:51.119Z,3.80
2024-01-06T17:36:17.848Z,3.83
2024-01-06T17:38:44.520Z,3.95
2024-01-06T17:41:11.107Z,3.79
2024-01-06T17:43:37.663Z,3.65
2024-01-06T17:46:04.456Z,3.68
2024-01-06T17:48:31.227Z,3.68
2024-01-06T17:50:57.893Z,3.77
2024-01-06T17:53:24.526Z,3.81
2024-01-06T17:55:51.158Z,3.69
2024-01-06T17:58:17.717Z,3.70
2024-01-06T18:00:44.342Z,3.61
2024-01-06T18:03:10.916Z,3.44
2024-01-06T18:05:37.488Z,3.33
2024-01-06T18:08:04.276Z,3.40
2024-01-06T18:10:30.846Z,3.51
2024-01-06T18:12:57.464Z,3.47
2024-01-06T18:15:24.085Z,3.50
2024-01-06T18:17:50.717Z,3.43
2024-01-06T18:20:17.313Z,3.46
2024-01-06T18:22:43.897Z,3.46
2024-01-06T18:25:10.436Z,3.40
2024-01-06T18:27:36.983Z,3.38
2024-01-06T18:30:03.984Z,3.36
2024-01-06T18:32:30.723Z,3.39
2024-01-06T18:34:57.381Z,3.48
2024-01-06T18:37:24.054Z,3.19
2024-01-06T18:39:50.603Z,3.02
2024-01-06T18:42:17.160Z,3.02
2024-01-06T18:44:43.697Z,2.99
2024-01-06T18:47:10.268Z,2.87
2024-01-06T18:49:36.960Z,2.76
2024-01-06T18:52:03.956Z,2.80
2024-01-06T18:54:34.884Z,2.95
2024-01-06T18:57:05.046Z,3.08
2024-01-06T18:59:31.588Z,3.09
2024-01-06T19:01:58.221Z,3.09
2024-01-06T19:04:24.866Z,3.10
2024-01-06T19:06:51.434Z,3.11
2024-01-06T19:09:18.129Z,3.11
2024-01-06T19:11:44.782Z,3.11
2024-01-06T19:14:11.362Z,3.07
2024-01-06T19:16:37.892Z,3.19
2024-01-06T19:19:04.546Z,2.94
2024-01-06T19:21:31.201Z,2.79
2024-01-06T19:23:57.719Z,2.75
2024-01-06T19:26:24.306Z,2.68
2024-01-06T19:28:50.805Z,2.59
2024-01-06T19:31:17.432Z,2.63
2024-01-06T19:33:44.082Z,2.81
2024-01-06T19:36:11.104Z,2.75
2024-01-06T19:38:37.642Z,2.69
2024-01-06T19:41:04.382Z,2.59
2024-01-06T19:43:32.781Z,2.56
2024-01-06T19:46:02.493Z,2.64
2024-01-06T19:48:29.397Z,2.69
2024-01-06T19:50:56.001Z,2.80
2024-01-06T19:53:22.569Z,2.86
2024-01-06T19:55:49.180Z,2.93
2024-01-06T19:58:15.730Z,2.98
2024-01-06T20:00:42.353Z,3.03
2024-01-06T20:03:11.593Z,3.06
2024-01-06T20:05:38.856Z,3.10
2024-01-06T20:08:05.715Z,3.08
2024-01-06T20:10:32.601Z,3.15
2024-01-06T20:12:59.268Z,3.26
2024-01-06T20:15:25.904Z,3.27
2024-01-06T20:17:52.712Z,3.16
2024-01-06T20:20:19.532Z,3.01
2024-01-06T20:22:46.096Z,2.98
2024-01-06T20:25:13.062Z,3.06
2024-01-06T20:27:39.641Z,3.06
2024-01-06T20:30:06.901Z,3.13
2024-01-06T20:32:35.513Z,3.29
2024-01-06T20:35:04.204Z,3.13
2024-01-06T20:37:30.829Z,3.23
2024-01-06T20:39:57.417Z,3.28
2024-01-06T20:42:24.057Z,3.28
2024-01-06T20:44:50.722Z,3.29
2024-01-06T20:47:17.247Z,3.23
2024-01-06T20:49:43.993Z,3.24
2024-01-06T20:52:10.656Z,3.29
2024-01-06T20:54:40.261Z,3.33
2024-01-06T20:57:06.840Z,3.20
2024-01-06T20:59:33.426Z,3.19
2024-01-06T21:02:00.068Z,3.29
2024-01-06T21:04:26.682Z,3.42
2024-01-06T21:06:53.212Z,3.43
2024-01-06T21:09:19.798Z,3.48
2024-01-06T21:11:46.334Z,3.50
2024-01-06T21:14:12.848Z,3.49
2024-01-06T21:16:40.296Z,3.50
2024-01-06T21:19:06.943Z,3.42
2024-01-06T21:21:33.555Z,3.46
2024-01-06T21:24:00.098Z,3.41
2024-01-06T21:26:27.596Z,3.27
2024-01-06T21:28:54.220Z,3.30
2024-01-06T21:31:20.852Z,3.30
2024-01-06T21:33:47.856Z,3.30
2024-01-06T21:36:14.670Z,3.06
2024-01-06T21:38:41.201Z,3.01
2024-01-06T21:41:07.673Z,3.02
2024-01-06T21:43:34.197Z,2.97
2024-01-06T21:46:00.954Z,2.82
2024-01-06T21:48:27.666Z,2.78
2024-01-06T21:50:54.211Z,2.73
2024-01-06T21:53:20.798Z,2.80
2024-01-06T21:55:48.413Z,2.89
2024-01-06T21:58:14.951Z,2.98
2024-01-06T22:00:41.803Z,2.94
2024-01-06T22:03:11.701Z,2.98
2024-01-06T22:05:38.500Z,2.90
2024-01-06T22:08:05.642Z,2.88
2024-01-06T22:10:32.226Z,2.92
2024-01-06T22:13:05.445Z,2.85
2024-01-06T22:15:35.140Z,2.75
2024-01-06T22:18:03.077Z,2.79
2024-01-06T22:20:29.716Z,2.78
2024-01-06T22:22:56.267Z,2.90
2024-01-06T22:25:22.776Z,2.89
2024-01-06T22:27:50.670Z,2.94
2024-01-06T22:30:17.291Z,3.07
2024-01-06T22:32:45.187Z,3.05
2024-01-06T22:35:11.877Z,3.11
2024-01-06T22:37:38.510Z,3.11
2024-01-06T22:40:05.659Z,3.09
2024-01-06T22:42:32.404Z,3.19
2024-01-06T22:44:59.160Z,3.15
2024-01-06T22:47:26.226Z,3.22
2024-01-06T22:49:52.893Z,3.18
2024-01-06T22:52:19.412Z,3.19
2024-01-06T22:54:45.988Z,3.17
2024-01-06T22:57:12.591Z,3.14
2024-01-06T22:59:39.208Z,3.10
2024-01-06T23:02:05.799Z,3.24
2024-01-06T23:04:32.406Z,3.17
2024-01-06T23:06:59.077Z,3.16
2024-01-06T23:09:25.670Z,3.16
2024-01-06T23:11:52.230Z,3.22
2024-01-06T23:14:18.821Z,3.19
2024-01-06T23:16:45.438Z,3.21
2024-01-06T23:19:12.219Z,3.28
2024-01-06T23:21:38.855Z,3.16
2024-01-06T23:24:05.792Z,3.06
2024-01-06T23:26:32.334Z,3.13
2024-01-06T23:28:58.906Z,3.17
2024-01-06T23:31:25.471Z,3.11
2024-01-06T23:33:52.297Z,2.94
2024-01-06T23:36:18.956Z,2.79
2024-01-06T23:38:45.513Z,2.71
2024-01-06T23:41:13.932Z,2.83
2024-01-06T23:43:40.490Z,2.78
2024-01-06T23:46:07.050Z,2.81
2024-01-06T23:48:33.692Z,2.82
2024-01-06T23:51:00.277Z,2.79
2024-01-06T23:53:26.874Z,2.77
2024-01-06T23:55:53.435Z,2.76
2024-01-06T23:58:20.004Z,2.75
